createdAt,value
2019-04-09T00:01:36.942Z,56.40
2019-04-09T00:03:42.192Z,56.20
2019-04-09T00:05:47.989Z,56.20
2019-04-09T00:08:01.137Z,56.20
2019-04-09T00:10:01.689Z,56.20
2019-04-09T00:12:06.938Z,56.40
2019-04-09T00:14:12.527Z,56.40
2019-04-09T00:16:18.915Z,56.40
2019-04-09T00:18:25.414Z,56.50
2019-04-09T00:20:30.811Z,56.60
2019-04-09T00:22:35.778Z,56.60
2019-04-09T00:24:41.368Z,56.80
2019-04-09T00:26:51.524Z,56.90
2019-04-09T00:28:53.896Z,56.90
2019-04-09T00:31:00.116Z,56.80
2019-04-09T00:33:05.708Z,56.90
2019-04-09T00:35:11.283Z,56.90
2019-04-09T00:37:17.305Z,56.80
2019-04-09T00:39:22.872Z,56.90
2019-04-09T00:41:27.928Z,56.80
2019-04-09T00:43:32.889Z,56.90
2019-04-09T00:45:38.340Z,56.80
2019-04-09T00:47:43.802Z,56.70
2019-04-09T00:49:50.100Z,56.70
2019-04-09T00:51:55.633Z,56.70
2019-04-09T00:54:01.173Z,56.50
2019-04-09T00:56:06.430Z,57.20
2019-04-09T00:58:12.130Z,56.60
2019-04-09T01:00:23.026Z,56.60
2019-04-09T01:02:29.779Z,56.60
2019-04-09T01:04:37.942Z,56.70
2019-04-09T01:06:44.979Z,56.60
2019-04-09T01:08:52.165Z,56.70
2019-04-09T01:10:57.105Z,56.80
2019-04-09T01:13:02.307Z,56.70
2019-04-09T01:15:08.748Z,56.70
2019-04-09T01:17:13.631Z,56.70
2019-04-09T01:19:21.666Z,56.70
2019-04-09T01:21:27.963Z,56.70
2019-04-09T01:23:33.058Z,56.70
2019-04-09T01:25:46.840Z,56.70
2019-04-09T01:27:53.433Z,56.70
2019-04-09T01:30:05.401Z,56.70
2019-04-09T01:32:41.800Z,56.70
2019-04-09T01:34:59.135Z,56.90
2019-04-09T01:37:33.076Z,56.80
2019-04-09T01:40:01.083Z,56.90
2019-04-09T01:42:19.108Z,57.00
2019-04-09T01:44:42.696Z,57.20
2019-04-09T01:46:58.326Z,57.20
2019-04-09T01:49:32.121Z,57.30
2019-04-09T01:51:58.231Z,57.40
2019-04-09T01:54:10.980Z,57.30
2019-04-09T01:56:33.279Z,57.30
2019-04-09T01:58:57.831Z,57.50
2019-04-09T02:01:23.859Z,57.60
2019-04-09T02:04:03.079Z,57.50
2019-04-09T02:06:32.798Z,57.40
2019-04-09T02:08:51.424Z,57.50
2019-04-09T02:11:15.806Z,57.40
2019-04-09T02:13:27.405Z,57.50
2019-04-09T02:15:45.654Z,57.60
2019-04-09T02:18:05.206Z,57.70
2019-04-09T02:20:27.944Z,57.80
2019-04-09T02:22:58.927Z,57.80
2019-04-09T02:25:29.169Z,57.90
2019-04-09T02:27:53.319Z,57.90
2019-04-09T02:30:06.586Z,58.00
2019-04-09T02:32:20.290Z,58.00
2019-04-09T02:34:45.789Z,57.90
2019-04-09T02:37:09.443Z,58.00
2019-04-09T02:39:36.192Z,58.00
2019-04-09T02:41:53.106Z,58.00
2019-04-09T02:44:08.586Z,58.10
2019-04-09T02:46:38.599Z,58.20
2019-04-09T02:48:54.965Z,58.30
2019-04-09T02:51:17.977Z,58.70
2019-04-09T02:53:31.544Z,58.30
2019-04-09T02:55:54.235Z,58.10
2019-04-09T02:58:12.865Z,58.10
2019-04-09T03:00:26.445Z,58.10
2019-04-09T03:02:58.891Z,58.20
2019-04-09T03:05:22.557Z,58.30
2019-04-09T03:07:43.772Z,58.30
2019-04-09T03:10:07.328Z,58.40
2019-04-09T03:12:37.360Z,58.30
2019-04-09T03:15:01.685Z,58.30
2019-04-09T03:17:17.468Z,58.30
2019-04-09T03:19:31.196Z,58.30
2019-04-09T03:21:50.963Z,59.10
2019-04-09T03:24:03.908Z,59.10
2019-04-09T03:26:19.845Z,59.10
2019-04-09T03:28:42.881Z,59.10
2019-04-09T03:30:57.535Z,59.10
2019-04-09T03:33:20.962Z,59.00
2019-04-09T03:35:38.031Z,58.80
2019-04-09T03:38:17.908Z,58.80
2019-04-09T03:40:54.082Z,58.90
2019-04-09T03:43:21.510Z,58.80
2019-04-09T03:45:51.570Z,58.80
2019-04-09T03:48:17.327Z,58.90
2019-04-09T03:50:42.107Z,58.90
2019-04-09T03:52:58.131Z,58.90
2019-04-09T03:55:26.377Z,58.80
2019-04-09T03:57:46.426Z,58.80
2019-04-09T04:00:06.084Z,58.80
2019-04-09T04:02:16.289Z,59.00
2019-04-09T04:04:34.068Z,58.80
2019-04-09T04:06:57.015Z,58.80
2019-04-09T04:09:10.228Z,59.40
2019-04-09T04:11:50.066Z,58.70
2019-04-09T04:14:20.556Z,58.80
2019-04-09T04:16:51.131Z,58.90
2019-04-09T04:19:08.609Z,59.00
2019-04-09T04:21:44.731Z,59.00
2019-04-09T04:24:09.087Z,59.80
2019-04-09T04:26:32.166Z,59.20
2019-04-09T04:28:52.279Z,59.40
2019-04-09T04:31:24.118Z,59.40
2019-04-09T04:33:35.279Z,59.40
2019-04-09T04:35:59.652Z,59.50
2019-04-09T04:38:23.575Z,59.60
2019-04-09T04:40:37.176Z,59.70
2019-04-09T04:43:04.602Z,59.80
2019-04-09T04:45:30.827Z,60.00
2019-04-09T04:47:59.429Z,60.10
2019-04-09T04:50:24.230Z,60.10
2019-04-09T04:52:41.951Z,60.20
2019-04-09T04:55:12.625Z,60.20
2019-04-09T04:57:31.531Z,60.40
2019-04-09T04:59:56.207Z,60.30
2019-04-09T05:02:19.433Z,60.40
2019-04-09T05:04:44.130Z,60.60
2019-04-09T05:07:21.451Z,60.60
2019-04-09T05:09:48.825Z,60.70
2019-04-09T05:12:05.463Z,60.70
2019-04-09T05:14:29.737Z,61.70
2019-04-09T05:16:41.797Z,60.90
2019-04-09T05:18:57.983Z,61.10
2019-04-09T05:21:17.764Z,61.20
2019-04-09T05:23:33.790Z,61.20
2019-04-09T05:25:47.373Z,61.10
2019-04-09T05:28:06.676Z,61.20
2019-04-09T05:30:20.525Z,61.30
2019-04-09T05:32:50.480Z,61.30
2019-04-09T05:35:05.836Z,61.30
2019-04-09T05:37:29.489Z,61.20
2019-04-09T05:40:03.043Z,61.30
2019-04-09T05:42:19.382Z,61.20
2019-04-09T05:44:55.516Z,61.40
2019-04-09T05:47:08.644Z,61.60
2019-04-09T05:49:29.739Z,61.70
2019-04-09T05:51:53.026Z,61.60
2019-04-09T05:54:17.660Z,61.70
2019-04-09T05:56:37.130Z,61.80
2019-04-09T05:59:07.576Z,61.90
2019-04-09T06:01:26.286Z,61.90
2019-04-09T06:03:43.106Z,62.00
2019-04-09T06:06:13.593Z,62.10
2019-04-09T06:08:31.728Z,62.30
2019-04-09T06:10:36.919Z,62.30
2019-04-09T06:12:42.009Z,62.40
2019-04-09T06:14:46.868Z,62.70
2019-04-09T06:16:52.586Z,62.90
2019-04-09T06:18:58.734Z,63.20
2019-04-09T06:21:05.674Z,63.20
2019-04-09T06:23:10.559Z,63.40
2019-04-09T06:25:18.183Z,63.50
2019-04-09T06:27:22.469Z,63.60
2019-04-09T06:29:28.356Z,63.60
2019-04-09T06:31:33.192Z,63.60
2019-04-09T06:33:48.870Z,63.70
2019-04-09T06:36:12.246Z,63.90
2019-04-09T06:38:31.915Z,63.80
2019-04-09T06:40:54.939Z,63.90
2019-04-09T06:43:10.868Z,64.00
2019-04-09T06:45:50.051Z,64.00
2019-04-09T06:48:09.097Z,63.00
2019-04-09T06:50:29.395Z,63.20
2019-04-09T06:52:50.824Z,63.10
2019-04-09T06:55:15.834Z,63.20
2019-04-09T06:57:56.129Z,63.30
2019-04-09T07:00:30.042Z,63.30
2019-04-09T07:03:07.136Z,63.30
2019-04-09T07:05:30.627Z,63.50
2019-04-09T07:07:54.468Z,63.80
2019-04-09T07:10:14.117Z,63.80
2019-04-09T07:12:33.145Z,63.90
2019-04-09T07:15:01.413Z,64.10
2019-04-09T07:17:24.553Z,64.10
2019-04-09T07:19:59.023Z,64.10
2019-04-09T07:22:22.088Z,64.20
2019-04-09T07:24:44.599Z,64.10
2019-04-09T07:27:19.890Z,64.20
2019-04-09T07:29:46.720Z,64.40
2019-04-09T07:32:11.761Z,64.70
2019-04-09T07:34:39.946Z,65.10
2019-04-09T07:37:12.949Z,65.30
2019-04-09T07:39:43.848Z,65.30
2019-04-09T07:42:26.288Z,65.60
2019-04-09T07:44:47.883Z,65.60
2019-04-09T07:47:13.602Z,65.90
2019-04-09T07:49:40.670Z,65.90
2019-04-09T07:52:22.735Z,66.10
2019-04-09T07:54:48.499Z,66.10
2019-04-09T07:57:04.324Z,66.10
2019-04-09T07:59:19.658Z,66.30
2019-04-09T08:01:39.387Z,66.10
2019-04-09T08:03:53.290Z,66.00
2019-04-09T08:06:08.895Z,65.60
2019-04-09T08:08:42.499Z,65.50
2019-04-09T08:11:07.551Z,65.20
2019-04-09T08:13:33.465Z,65.00
2019-04-09T08:16:06.789Z,64.70
2019-04-09T08:18:29.418Z,64.50
2019-04-09T08:20:48.229Z,64.50
2019-04-09T08:23:00.809Z,64.00
2019-04-09T08:25:27.775Z,63.60
2019-04-09T08:27:55.113Z,63.20
2019-04-09T08:30:25.598Z,62.70
2019-04-09T08:32:47.622Z,62.30
2019-04-09T08:35:12.442Z,62.00
2019-04-09T08:37:36.714Z,62.00
2019-04-09T08:40:01.693Z,61.50
2019-04-09T08:42:16.979Z,61.30
2019-04-09T08:44:47.265Z,60.90
2019-04-09T08:47:07.922Z,60.60
2019-04-09T08:49:30.679Z,60.40
2019-04-09T08:51:53.785Z,60.00
2019-04-09T08:54:22.449Z,59.70
2019-04-09T08:56:36.539Z,59.50
2019-04-09T08:58:49.284Z,59.40
2019-04-09T09:01:47.736Z,59.30
2019-04-09T09:03:44.503Z,59.00
2019-04-09T09:06:03.594Z,58.80
2019-04-09T09:08:21.500Z,58.60
2019-04-09T09:10:51.282Z,58.30
2019-04-09T09:13:17.527Z,58.00
2019-04-09T09:15:56.129Z,57.80
2019-04-09T09:18:09.675Z,57.40
2019-04-09T09:20:38.205Z,57.20
2019-04-09T09:22:48.855Z,57.20
2019-04-09T09:24:59.848Z,57.00
2019-04-09T09:27:16.545Z,56.90
2019-04-09T09:29:42.383Z,56.80
2019-04-09T09:31:53.148Z,56.80
2019-04-09T09:34:20.956Z,56.70
2019-04-09T09:36:42.721Z,56.50
2019-04-09T09:39:19.303Z,56.30
2019-04-09T09:41:42.478Z,56.30
2019-04-09T09:44:05.077Z,56.00
2019-04-09T09:46:30.749Z,55.80
2019-04-09T09:48:47.860Z,55.60
2019-04-09T09:51:04.229Z,55.40
2019-04-09T09:53:33.835Z,54.90
2019-04-09T09:55:57.728Z,55.20
2019-04-09T09:58:16.251Z,55.30
2019-04-09T10:00:48.939Z,55.30
2019-04-09T10:03:22.081Z,55.30
2019-04-09T10:05:39.277Z,55.00
2019-04-09T10:08:09.078Z,55.00
2019-04-09T10:10:50.098Z,55.10
2019-04-09T10:13:15.462Z,55.20
2019-04-09T10:15:27.546Z,54.60
2019-04-09T10:17:51.722Z,54.60
2019-04-09T10:20:03.940Z,54.20
2019-04-09T10:22:20.599Z,54.10
2019-04-09T10:24:46.049Z,54.10
2019-04-09T10:27:16.944Z,53.90
2019-04-09T10:29:39.051Z,53.80
2019-04-09T10:32:10.127Z,53.70
2019-04-09T10:34:36.525Z,53.50
2019-04-09T10:36:53.623Z,53.30
2019-04-09T10:39:39.004Z,53.00
2019-04-09T10:42:09.439Z,52.80
2019-04-09T10:44:33.081Z,52.70
2019-04-09T10:46:49.502Z,52.80
2019-04-09T10:49:22.069Z,52.50
2019-04-09T10:51:41.442Z,52.50
2019-04-09T10:54:04.881Z,52.40
2019-04-09T10:56:35.757Z,52.20
2019-04-09T10:59:11.659Z,51.90
2019-04-09T11:01:49.818Z,51.80
2019-04-09T11:04:19.013Z,51.90
2019-04-09T11:06:50.859Z,51.60
2019-04-09T11:09:14.613Z,51.50
2019-04-09T11:11:37.750Z,51.20
2019-04-09T11:13:50.521Z,51.20
2019-04-09T11:16:13.914Z,51.20
2019-04-09T11:18:38.118Z,51.30
2019-04-09T11:21:12.284Z,51.00
2019-04-09T11:23:39.569Z,51.10
2019-04-09T11:26:12.285Z,50.90
2019-04-09T11:28:42.287Z,50.80
2019-04-09T11:30:57.967Z,50.70
2019-04-09T11:33:09.062Z,50.50
2019-04-09T11:35:36.695Z,50.10
2019-04-09T11:37:59.802Z,49.90
2019-04-09T11:40:16.812Z,49.70
2019-04-09T11:42:41.813Z,49.60
2019-04-09T11:45:09.262Z,49.10
2019-04-09T11:47:25.948Z,49.20
2019-04-09T11:49:40.641Z,49.30
2019-04-09T11:52:14.543Z,49.10
2019-04-09T11:54:30.382Z,48.90
2019-04-09T11:56:58.121Z,49.00
2019-04-09T11:59:29.476Z,48.50
2019-04-09T12:01:43.614Z,48.40
2019-04-09T12:04:03.468Z,48.00
2019-04-09T12:06:25.015Z,48.00
2019-04-09T12:08:45.181Z,48.00
2019-04-09T12:11:02.805Z,47.80
2019-04-09T12:13:33.250Z,47.70
2019-04-09T12:16:16.030Z,47.60
2019-04-09T12:18:28.818Z,47.20
2019-04-09T12:21:04.793Z,47.20
2019-04-09T12:23:41.194Z,47.00
2019-04-09T12:25:55.939Z,47.00
2019-04-09T12:28:35.556Z,46.70
2019-04-09T12:30:59.763Z,46.40
2019-04-09T12:33:25.144Z,46.50
2019-04-09T12:35:48.861Z,46.50
2019-04-09T12:38:06.123Z,46.60
2019-04-09T12:40:26.738Z,46.70
2019-04-09T12:42:54.557Z,46.40
2019-04-09T12:45:22.587Z,46.20
2019-04-09T12:47:58.964Z,46.40
2019-04-09T12:50:22.287Z,46.30
2019-04-09T12:52:46.049Z,46.20
2019-04-09T12:55:09.979Z,46.10
2019-04-09T12:57:41.874Z,45.90
2019-04-09T13:00:07.385Z,46.00
2019-04-09T13:02:30.238Z,45.90
2019-04-09T13:04:51.321Z,45.60
2019-04-09T13:07:30.328Z,45.50
2019-04-09T13:09:57.655Z,45.40
2019-04-09T13:12:34.027Z,45.30
2019-04-09T13:15:14.400Z,45.10
2019-04-09T13:17:29.850Z,45.10
2019-04-09T13:19:45.962Z,44.90
2019-04-09T13:22:03.675Z,44.80
2019-04-09T13:24:20.945Z,44.50
2019-04-09T13:26:38.352Z,44.30
2019-04-09T13:29:05.426Z,44.30
2019-04-09T13:31:32.517Z,44.20
2019-04-09T13:33:48.335Z,44.00
2019-04-09T13:36:22.063Z,43.90
2019-04-09T13:38:47.114Z,43.80
2019-04-09T13:41:30.078Z,43.80
2019-04-09T13:43:53.231Z,43.50
2019-04-09T13:46:10.654Z,43.70
2019-04-09T13:48:38.653Z,43.60
2019-04-09T13:50:57.155Z,43.40
2019-04-09T13:53:02.610Z,43.50
2019-04-09T13:55:10.766Z,43.40
2019-04-09T13:57:15.920Z,42.90
2019-04-09T13:59:21.185Z,43.00
2019-04-09T14:01:26.367Z,43.10
2019-04-09T14:03:56.827Z,43.00
2019-04-09T14:06:02.486Z,43.10
2019-04-09T14:08:08.823Z,42.90
2019-04-09T14:10:14.471Z,42.80
2019-04-09T14:12:21.147Z,42.90
2019-04-09T14:14:26.918Z,43.00
2019-04-09T14:16:32.122Z,42.90
2019-04-09T14:18:38.688Z,42.70
2019-04-09T14:20:44.299Z,42.60
2019-04-09T14:22:49.409Z,42.60
2019-04-09T14:24:54.805Z,42.60
2019-04-09T14:26:59.732Z,42.50
2019-04-09T14:29:05.136Z,42.60
2019-04-09T14:31:10.632Z,42.50
2019-04-09T14:33:16.926Z,42.50
2019-04-09T14:35:21.815Z,42.40
2019-04-09T14:37:26.942Z,42.40
2019-04-09T14:39:32.452Z,42.10
2019-04-09T14:41:37.389Z,42.20
2019-04-09T14:43:44.451Z,42.00
2019-04-09T14:45:51.019Z,41.90
2019-04-09T14:47:56.833Z,42.10
2019-04-09T14:50:02.188Z,42.10
2019-04-09T14:52:07.893Z,42.20
2019-04-09T14:54:12.833Z,42.90
2019-04-09T14:56:18.021Z,42.10
2019-04-09T14:58:24.593Z,42.10
2019-04-09T15:00:30.381Z,42.10
2019-04-09T15:02:36.025Z,41.90
2019-04-09T15:04:41.732Z,41.80
2019-04-09T15:06:49.860Z,42.00
2019-04-09T15:08:54.648Z,41.90
2019-04-09T15:10:59.757Z,42.70
2019-04-09T15:13:04.974Z,42.00
2019-04-09T15:15:11.502Z,41.90
2019-04-09T15:17:16.668Z,41.90
2019-04-09T15:19:22.084Z,41.90
2019-04-09T15:21:52.289Z,41.60
2019-04-09T15:23:57.446Z,41.60
2019-04-09T15:26:03.319Z,42.20
2019-04-09T15:28:09.104Z,42.20
2019-04-09T15:30:15.232Z,41.60
2019-04-09T15:32:22.727Z,41.70
2019-04-09T15:34:28.670Z,41.60
2019-04-09T15:36:33.880Z,41.80
2019-04-09T15:38:40.553Z,41.80
2019-04-09T15:40:46.249Z,41.90
2019-04-09T15:42:51.380Z,41.90
2019-04-09T15:44:56.648Z,42.50
2019-04-09T15:47:02.219Z,42.00
2019-04-09T15:49:07.640Z,42.00
2019-04-09T15:51:13.078Z,42.10
2019-04-09T15:53:30.481Z,42.20
2019-04-09T15:55:25.445Z,42.30
2019-04-09T15:57:31.872Z,42.20
2019-04-09T15:59:37.162Z,42.30
2019-04-09T16:01:43.627Z,42.30
2019-04-09T16:03:55.397Z,42.20
2019-04-09T16:05:56.954Z,42.40
2019-04-09T16:08:03.106Z,43.10
2019-04-09T16:10:09.241Z,42.50
2019-04-09T16:12:14.962Z,42.50
2019-04-09T16:14:20.310Z,42.70
2019-04-09T16:16:25.627Z,42.70
2019-04-09T16:18:32.116Z,42.80
2019-04-09T16:20:37.553Z,43.00
2019-04-09T16:22:42.954Z,43.00
2019-04-09T16:24:48.918Z,43.20
2019-04-09T16:26:54.212Z,43.30
2019-04-09T16:28:59.087Z,43.30
2019-04-09T16:31:04.499Z,43.40
2019-04-09T16:33:15.588Z,43.30
2019-04-09T16:35:16.889Z,43.40
2019-04-09T16:37:24.625Z,43.50
2019-04-09T16:39:30.346Z,43.50
2019-04-09T16:41:36.277Z,43.60
2019-04-09T16:43:41.861Z,43.80
2019-04-09T16:45:47.945Z,43.90
2019-04-09T16:47:53.431Z,44.00
2019-04-09T16:49:58.670Z,44.00
2019-04-09T16:52:04.065Z,44.10
2019-04-09T16:54:09.645Z,43.90
2019-04-09T16:56:15.865Z,43.90
2019-04-09T16:58:21.522Z,43.90
2019-04-09T17:00:26.594Z,43.90
2019-04-09T17:02:32.366Z,44.10
2019-04-09T17:04:37.728Z,44.00
2019-04-09T17:06:43.102Z,44.10
2019-04-09T17:08:48.373Z,44.20
2019-04-09T17:10:53.449Z,44.00
2019-04-09T17:12:58.849Z,44.10
2019-04-09T17:15:04.433Z,44.10
2019-04-09T17:17:09.860Z,44.10
2019-04-09T17:19:15.670Z,44.10
2019-04-09T17:21:21.356Z,44.10
2019-04-09T17:23:27.434Z,44.00
2019-04-09T17:25:33.169Z,44.00
2019-04-09T17:27:39.026Z,44.20
2019-04-09T17:29:44.014Z,44.30
2019-04-09T17:31:49.344Z,44.30
2019-04-09T17:33:55.180Z,44.20
2019-04-09T17:36:00.418Z,44.30
2019-04-09T17:38:05.792Z,44.40
2019-04-09T17:40:13.880Z,44.50
2019-04-09T17:42:20.716Z,44.60
2019-04-09T17:44:27.084Z,44.60
2019-04-09T17:46:32.679Z,44.70
2019-04-09T17:48:38.218Z,44.90
2019-04-09T17:50:44.457Z,44.80
2019-04-09T17:52:49.997Z,44.90
2019-04-09T17:54:55.020Z,44.80
2019-04-09T17:57:00.773Z,44.80
2019-04-09T17:59:06.877Z,44.70
2019-04-09T18:01:13.225Z,44.70
2019-04-09T18:03:18.190Z,45.00
2019-04-09T18:05:23.602Z,45.10
2019-04-09T18:07:28.972Z,45.10
2019-04-09T18:09:34.035Z,45.10
2019-04-09T18:11:40.632Z,45.30
2019-04-09T18:13:47.629Z,45.40
2019-04-09T18:15:54.050Z,45.30
2019-04-09T18:17:59.913Z,45.20
2019-04-09T18:20:07.712Z,45.20
2019-04-09T18:22:15.512Z,45.30
2019-04-09T18:24:23.859Z,45.30
2019-04-09T18:26:28.576Z,45.30
2019-04-09T18:28:34.393Z,45.50
2019-04-09T18:30:40.352Z,45.60
2019-04-09T18:32:45.712Z,45.50
2019-04-09T18:34:57.009Z,45.80
2019-04-09T18:36:58.125Z,45.90
2019-04-09T18:39:03.520Z,45.90
2019-04-09T18:41:08.800Z,46.10
2019-04-09T18:43:14.930Z,46.10
2019-04-09T18:45:20.777Z,46.10
2019-04-09T18:47:25.792Z,46.00
2019-04-09T18:49:30.931Z,46.00
2019-04-09T18:51:36.640Z,46.00
2019-04-09T18:53:41.506Z,46.20
2019-04-09T18:55:46.809Z,46.10
2019-04-09T18:57:52.380Z,46.40
2019-04-09T18:59:57.848Z,46.50
2019-04-09T19:02:03.850Z,46.40
2019-04-09T19:04:15.823Z,46.60
2019-04-09T19:06:16.575Z,46.80
2019-04-09T19:08:22.902Z,46.70
2019-04-09T19:10:28.519Z,46.60
2019-04-09T19:12:34.257Z,46.80
2019-04-09T19:14:39.886Z,47.00
2019-04-09T19:16:46.470Z,47.10
2019-04-09T19:18:52.098Z,47.00
2019-04-09T19:20:58.425Z,46.90
2019-04-09T19:23:04.374Z,47.10
2019-04-09T19:25:10.248Z,47.10
2019-04-09T19:27:15.835Z,47.20
2019-04-09T19:29:22.519Z,47.10
2019-04-09T19:31:27.954Z,47.10
2019-04-09T19:33:34.073Z,47.10
2019-04-09T19:35:39.844Z,47.10
2019-04-09T19:37:48.971Z,47.00
2019-04-09T19:40:12.370Z,47.10
2019-04-09T19:42:19.534Z,47.20
2019-04-09T19:44:25.362Z,47.40
2019-04-09T19:46:31.317Z,47.40
2019-04-09T19:48:38.007Z,47.50
2019-04-09T19:50:43.943Z,47.70
2019-04-09T19:52:49.539Z,47.90
2019-04-09T19:54:55.758Z,47.80
2019-04-09T19:57:01.767Z,47.90
2019-04-09T19:59:09.102Z,48.10
2019-04-09T20:01:14.461Z,48.10
2019-04-09T20:03:21.050Z,48.20
2019-04-09T20:05:34.585Z,48.30
2019-04-09T20:07:34.298Z,48.30
2019-04-09T20:09:40.087Z,48.40
2019-04-09T20:11:45.681Z,48.50
2019-04-09T20:13:52.277Z,48.60
2019-04-09T20:15:58.969Z,48.70
2019-04-09T20:18:05.004Z,48.80
2019-04-09T20:20:11.355Z,48.80
2019-04-09T20:22:16.590Z,48.70
2019-04-09T20:24:22.621Z,48.60
2019-04-09T20:26:28.499Z,48.60
2019-04-09T20:28:35.087Z,48.70
2019-04-09T20:30:40.572Z,48.80
2019-04-09T20:32:46.538Z,48.80
2019-04-09T20:35:03.013Z,48.80
2019-04-09T20:36:59.065Z,48.80
2019-04-09T20:39:07.322Z,48.90
2019-04-09T20:41:13.211Z,49.10
2019-04-09T20:43:18.851Z,49.20
2019-04-09T20:45:24.689Z,49.40
2019-04-09T20:47:30.996Z,49.40
2019-04-09T20:49:36.803Z,49.60
2019-04-09T20:51:43.172Z,49.70
2019-04-09T20:53:49.942Z,49.70
2019-04-09T20:55:56.209Z,49.60
2019-04-09T20:58:02.335Z,49.70
2019-04-09T21:00:40.793Z,49.80
2019-04-09T21:02:58.518Z,50.00
2019-04-09T21:05:07.911Z,49.90
2019-04-09T21:07:12.887Z,49.90
2019-04-09T21:09:20.151Z,49.90
2019-04-09T21:11:26.318Z,49.70
2019-04-09T21:13:31.930Z,49.70
2019-04-09T21:15:37.172Z,49.70
2019-04-09T21:17:42.805Z,49.70
2019-04-09T21:19:48.411Z,49.80
2019-04-09T21:21:54.198Z,49.80
2019-04-09T21:23:59.396Z,49.90
2019-04-09T21:26:05.346Z,49.90
2019-04-09T21:28:10.986Z,50.00
2019-04-09T21:30:17.009Z,49.90
2019-04-09T21:32:22.521Z,49.90
2019-04-09T21:34:28.519Z,50.10
2019-04-09T21:36:33.741Z,50.00
2019-04-09T21:38:38.700Z,50.10
2019-04-09T21:40:44.605Z,50.10
2019-04-09T21:42:51.131Z,50.20
2019-04-09T21:44:57.492Z,50.20
2019-04-09T21:47:03.751Z,50.30
2019-04-09T21:49:09.584Z,50.40
2019-04-09T21:51:15.541Z,50.20
2019-04-09T21:53:21.682Z,50.40
2019-04-09T21:55:28.699Z,50.50
2019-04-09T21:57:33.986Z,51.00
2019-04-09T21:59:39.428Z,50.50
2019-04-09T22:01:47.224Z,50.60
2019-04-09T22:03:52.891Z,50.50
2019-04-09T22:05:58.962Z,50.50
2019-04-09T22:08:05.618Z,50.60
2019-04-09T22:10:11.561Z,50.40
2019-04-09T22:12:17.677Z,50.40
2019-04-09T22:14:22.913Z,50.50
2019-04-09T22:16:27.900Z,50.50
2019-04-09T22:18:32.990Z,50.50
2019-04-09T22:20:39.315Z,50.60
2019-04-09T22:22:44.306Z,50.60
2019-04-09T22:24:50.295Z,50.70
2019-04-09T22:26:56.160Z,50.50
2019-04-09T22:29:02.968Z,50.60
2019-04-09T22:31:08.452Z,50.60
2019-04-09T22:33:16.321Z,50.60
2019-04-09T22:35:21.349Z,50.70
2019-04-09T22:37:26.957Z,50.60
2019-04-09T22:39:33.289Z,50.60
2019-04-09T22:41:38.809Z,50.70
2019-04-09T22:43:44.847Z,50.90
2019-04-09T22:45:50.985Z,50.90
2019-04-09T22:47:56.239Z,50.80
2019-04-09T22:50:01.855Z,50.80
2019-04-09T22:52:07.738Z,50.80
2019-04-09T22:54:13.538Z,51.30
2019-04-09T22:56:18.670Z,50.70
2019-04-09T22:58:24.551Z,50.60
2019-04-09T23:00:49.282Z,50.50
2019-04-09T23:03:02.814Z,50.50
2019-04-09T23:05:33.193Z,50.40
2019-04-09T23:07:52.543Z,50.40
2019-04-09T23:10:09.417Z,50.40
2019-04-09T23:12:23.037Z,50.50
2019-04-09T23:14:28.399Z,50.50
2019-04-09T23:16:33.938Z,50.60
2019-04-09T23:18:39.433Z,50.80
2019-04-09T23:20:45.505Z,50.90
2019-04-09T23:22:51.006Z,50.80
2019-04-09T23:24:56.515Z,50.80
2019-04-09T23:27:01.801Z,50.80
2019-04-09T23:29:06.863Z,50.80
2019-04-09T23:31:12.634Z,51.00
2019-04-09T23:33:18.472Z,51.10
2019-04-09T23:35:23.843Z,51.10
2019-04-09T23:37:28.807Z,51.20
2019-04-09T23:39:34.839Z,51.70
2019-04-09T23:41:40.654Z,51.40
2019-04-09T23:43:46.084Z,51.50
2019-04-09T23:45:51.045Z,51.60
2019-04-09T23:47:56.296Z,51.70
2019-04-09T23:50:02.663Z,51.80
2019-04-09T23:52:08.064Z,52.10
2019-04-09T23:54:15.992Z,51.70
2019-04-09T23:56:21.341Z,51.80
2019-04-09T23:58:27.088Z,52.00
